createdAt,value
2022-11-29T00:01:41.125Z,81.95
2022-11-29T00:04:08.341Z,81.95
2022-11-29T00:06:36.016Z,82.20
2022-11-29T00:09:06.538Z,81.82
2022-11-29T00:11:53.750Z,81.17
2022-11-29T00:14:22.829Z,80.78
2022-11-29T00:16:54.627Z,80.90
2022-11-29T00:19:21.879Z,79.85
2022-11-29T00:21:48.799Z,82.32
2022-11-29T00:24:15.649Z,80.95
2022-11-29T00:26:42.463Z,81.35
2022-11-29T00:29:11.219Z,80.05
2022-11-29T00:31:40.207Z,80.85
2022-11-29T00:34:07.491Z,83.35
2022-11-29T00:36:35.420Z,82.35
2022-11-29T00:39:03.299Z,80.28
2022-11-29T00:41:30.551Z,80.22
2022-11-29T00:43:57.569Z,81.45
2022-11-29T00:46:25.225Z,79.90
2022-11-29T00:48:53.493Z,79.35
2022-11-29T00:51:20.401Z,80.47
2022-11-29T00:53:47.351Z,79.57
2022-11-29T00:56:14.153Z,80.43
2022-11-29T00:58:43.591Z,80.18
2022-11-29T01:01:11.881Z,79.97
2022-11-29T01:03:38.909Z,79.90
2022-11-29T01:06:09.945Z,80.03
2022-11-29T01:08:37.139Z,79.20
2022-11-29T01:11:07.221Z,80.00
2022-11-29T01:13:34.519Z,79.45
2022-11-29T01:16:01.997Z,80.50
2022-11-29T01:18:30.433Z,80.68
2022-11-29T01:21:02.130Z,79.82
2022-11-29T01:23:30.423Z,81.00
2022-11-29T01:25:59.139Z,80.95
2022-11-29T01:28:26.429Z,79.75
2022-11-29T01:30:53.445Z,80.97
2022-11-29T01:33:20.522Z,80.60
2022-11-29T01:35:48.541Z,80.25
2022-11-29T01:38:15.797Z,80.10
2022-11-29T01:40:44.344Z,79.28
2022-11-29T01:43:15.532Z,79.13
2022-11-29T01:45:43.028Z,81.45
2022-11-29T01:48:10.773Z,79.18
2022-11-29T01:50:38.668Z,80.75
2022-11-29T01:53:06.330Z,79.57
2022-11-29T01:55:37.101Z,80.40
2022-11-29T01:58:07.989Z,81.60
2022-11-29T02:00:35.658Z,79.93
2022-11-29T02:03:09.771Z,80.07
2022-11-29T02:05:39.117Z,79.90
2022-11-29T02:08:08.332Z,80.00
2022-11-29T02:10:46.809Z,79.40
2022-11-29T02:13:27.177Z,79.88
2022-11-29T02:16:01.228Z,80.18
2022-11-29T02:18:40.994Z,79.80
2022-11-29T02:21:33.942Z,79.65
2022-11-29T02:24:33.442Z,79.03
2022-11-29T02:27:12.858Z,79.53
2022-11-29T02:30:18.197Z,79.10
2022-11-29T02:33:09.911Z,79.68
2022-11-29T02:35:59.362Z,79.25
2022-11-29T02:38:53.767Z,79.40
2022-11-29T02:41:36.067Z,80.00
2022-11-29T02:44:40.532Z,79.25
2022-11-29T02:47:15.610Z,79.18
2022-11-29T02:50:07.726Z,78.65
2022-11-29T02:52:43.256Z,78.93
2022-11-29T02:55:15.954Z,80.05
2022-11-29T02:57:50.521Z,78.65
2022-11-29T03:00:20.070Z,79.22
2022-11-29T03:02:53.497Z,79.63
2022-11-29T03:05:29.455Z,79.28
2022-11-29T03:08:06.222Z,79.18
2022-11-29T03:10:43.686Z,78.90
2022-11-29T03:13:19.969Z,79.90
2022-11-29T03:15:57.677Z,78.70
2022-11-29T03:18:34.134Z,78.85
2022-11-29T03:21:10.218Z,78.65
2022-11-29T03:23:43.156Z,79.18
2022-11-29T03:26:14.423Z,79.13
2022-11-29T03:28:51.165Z,78.28
2022-11-29T03:31:27.143Z,79.63
2022-11-29T03:34:00.861Z,78.53
2022-11-29T03:36:39.996Z,79.93
2022-11-29T03:39:13.304Z,78.57
2022-11-29T03:41:46.803Z,78.35
2022-11-29T03:44:17.683Z,78.78
2022-11-29T03:46:54.665Z,79.68
2022-11-29T03:49:28.678Z,78.53
2022-11-29T03:52:04.191Z,78.30
2022-11-29T03:54:43.440Z,79.95
2022-11-29T03:57:12.779Z,78.22
2022-11-29T03:59:51.888Z,78.50
2022-11-29T04:02:40.502Z,78.53
2022-11-29T04:05:40.478Z,78.82
2022-11-29T04:08:48.288Z,78.78
2022-11-29T04:11:31.918Z,78.60
2022-11-29T04:14:20.909Z,78.40
2022-11-29T04:17:26.960Z,79.15
2022-11-29T04:20:40.352Z,80.05
2022-11-29T04:23:27.367Z,78.80
2022-11-29T04:26:13.536Z,80.85
2022-11-29T04:29:12.697Z,79.55
2022-11-29T04:31:54.095Z,78.90
2022-11-29T04:34:50.622Z,78.28
2022-11-29T04:37:44.238Z,78.28
2022-11-29T04:40:49.031Z,78.63
2022-11-29T04:43:45.890Z,78.70
2022-11-29T04:46:47.367Z,78.85
2022-11-29T04:49:37.138Z,79.05
2022-11-29T04:52:24.018Z,79.13
2022-11-29T04:54:59.153Z,79.22
2022-11-29T04:57:35.672Z,79.20
2022-11-29T05:00:08.156Z,78.63
2022-11-29T05:02:42.535Z,78.70
2022-11-29T05:05:21.805Z,78.15
2022-11-29T05:07:58.220Z,79.10
2022-11-29T05:10:33.153Z,78.70
2022-11-29T05:13:09.706Z,78.82
2022-11-29T05:16:00.248Z,79.10
2022-11-29T05:18:45.307Z,78.38
2022-11-29T05:21:20.760Z,78.90
2022-11-29T05:23:56.486Z,78.15
2022-11-29T05:26:29.065Z,78.10
2022-11-29T05:29:01.749Z,79.88
2022-11-29T05:31:53.770Z,78.28
2022-11-29T05:37:22.095Z,77.95
2022-11-29T05:40:08.679Z,78.28
2022-11-29T05:42:50.827Z,78.38
2022-11-29T05:45:24.569Z,78.32
2022-11-29T05:47:59.390Z,78.32
2022-11-29T05:50:33.829Z,79.03
2022-11-29T05:53:17.715Z,78.78
2022-11-29T05:55:53.913Z,79.47
2022-11-29T05:58:30.794Z,78.18
2022-11-29T06:01:02.610Z,78.88
2022-11-29T06:03:37.107Z,79.35
2022-11-29T06:06:10.515Z,78.78
2022-11-29T06:08:43.268Z,79.60
2022-11-29T06:11:15.937Z,79.45
2022-11-29T06:13:55.300Z,79.03
2022-11-29T06:17:01.849Z,78.57
2022-11-29T06:19:49.733Z,79.07
2022-11-29T06:22:40.064Z,78.95
2022-11-29T06:25:23.562Z,78.93
2022-11-29T06:28:05.765Z,79.35
2022-11-29T06:30:48.537Z,80.30
2022-11-29T06:33:22.089Z,79.10
2022-11-29T06:36:08.078Z,80.20
2022-11-29T06:38:35.639Z,79.35
2022-11-29T06:41:03.089Z,79.72
2022-11-29T06:43:30.552Z,82.60
2022-11-29T06:46:04.197Z,80.82
2022-11-29T06:48:39.081Z,80.28
2022-11-29T06:51:16.815Z,80.53
2022-11-29T06:53:52.500Z,79.97
2022-11-29T06:56:26.543Z,80.53
2022-11-29T06:59:02.776Z,80.20
2022-11-29T07:01:37.312Z,80.22
2022-11-29T07:04:29.939Z,80.72
2022-11-29T07:06:58.879Z,80.20
2022-11-29T07:09:30.276Z,80.47
2022-11-29T07:14:24.531Z,80.25
2022-11-29T07:17:01.818Z,80.07
2022-11-29T07:19:39.659Z,81.63
2022-11-29T07:22:20.496Z,80.75
2022-11-29T07:24:58.612Z,81.28
2022-11-29T07:27:33.309Z,80.80
2022-11-29T07:30:09.435Z,81.57
2022-11-29T07:32:50.459Z,81.15
2022-11-29T07:35:25.363Z,82.22
2022-11-29T07:38:03.913Z,81.80
2022-11-29T07:40:37.785Z,80.35
2022-11-29T07:43:19.420Z,80.35
2022-11-29T07:45:47.464Z,80.40
2022-11-29T07:48:17.205Z,81.97
2022-11-29T07:50:44.542Z,80.47
2022-11-29T07:53:16.577Z,83.57
2022-11-29T07:55:43.866Z,80.20
2022-11-29T07:58:12.780Z,81.05
2022-11-29T08:00:39.880Z,80.65
2022-11-29T08:03:06.725Z,80.70
2022-11-29T08:05:33.571Z,80.57
2022-11-29T08:08:00.426Z,80.20
2022-11-29T08:10:28.842Z,82.18
2022-11-29T08:12:55.662Z,80.75
2022-11-29T08:15:23.373Z,80.85
2022-11-29T08:17:50.988Z,81.15
2022-11-29T08:20:18.020Z,82.18
2022-11-29T08:22:44.852Z,80.50
2022-11-29T08:25:11.884Z,81.80
2022-11-29T08:27:40.068Z,83.13
2022-11-29T08:30:08.778Z,83.75
2022-11-29T08:32:35.612Z,84.15
2022-11-29T08:35:02.447Z,81.90
2022-11-29T08:37:29.206Z,82.47
2022-11-29T08:39:59.664Z,83.95
2022-11-29T08:42:26.526Z,83.00
2022-11-29T08:44:54.742Z,82.57
2022-11-29T08:47:51.120Z,82.15
2022-11-29T08:50:18.337Z,83.57
2022-11-29T08:53:05.177Z,84.30
2022-11-29T08:55:33.696Z,82.90
2022-11-29T08:58:03.051Z,82.68
2022-11-29T09:00:31.522Z,86.57
2022-11-29T09:03:18.626Z,83.65
2022-11-29T09:05:45.616Z,82.20
2022-11-29T09:08:12.434Z,82.47
2022-11-29T09:10:39.930Z,83.50
2022-11-29T09:13:07.194Z,81.78
2022-11-29T09:15:36.933Z,82.07
2022-11-29T09:18:05.583Z,80.80
2022-11-29T09:20:33.013Z,82.85
2022-11-29T09:22:59.921Z,82.63
2022-11-29T09:25:27.260Z,82.05
2022-11-29T09:27:54.191Z,82.78
2022-11-29T09:30:23.795Z,83.22
2022-11-29T09:32:52.232Z,83.22
2022-11-29T09:35:18.993Z,81.57
2022-11-29T09:37:45.801Z,82.25
2022-11-29T09:40:18.277Z,82.03
2022-11-29T09:42:55.424Z,83.88
2022-11-29T09:45:30.098Z,81.57
2022-11-29T09:48:21.187Z,82.45
2022-11-29T09:50:52.253Z,83.70
2022-11-29T09:53:36.136Z,81.10
2022-11-29T09:56:16.011Z,81.65
2022-11-29T09:58:49.312Z,82.57
2022-11-29T10:01:23.115Z,81.75
2022-11-29T10:03:54.576Z,82.63
2022-11-29T10:06:25.450Z,82.15
2022-11-29T10:08:59.262Z,84.97
2022-11-29T10:11:35.183Z,82.07
2022-11-29T10:14:11.223Z,83.65
2022-11-29T10:16:44.210Z,82.47
2022-11-29T10:19:20.898Z,83.25
2022-11-29T10:21:54.911Z,86.88
2022-11-29T10:24:23.331Z,84.80
2022-11-29T10:26:50.102Z,85.03
2022-11-29T10:29:16.994Z,84.35
2022-11-29T10:31:46.911Z,85.65
2022-11-29T10:34:17.636Z,84.05
2022-11-29T10:36:47.351Z,83.57
2022-11-29T10:39:20.968Z,88.18
2022-11-29T10:41:51.999Z,86.68
2022-11-29T10:44:18.861Z,87.47
2022-11-29T10:46:45.651Z,83.90
2022-11-29T10:49:16.915Z,85.13
2022-11-29T10:51:43.889Z,87.15
2022-11-29T10:54:29.778Z,83.25
2022-11-29T10:56:59.209Z,84.55
2022-11-29T10:59:29.278Z,87.40
2022-11-29T11:01:57.328Z,84.88
2022-11-29T11:04:31.693Z,85.85
2022-11-29T11:07:02.248Z,84.93
2022-11-29T11:09:34.191Z,82.90
2022-11-29T11:12:03.784Z,85.75
2022-11-29T11:14:33.096Z,85.80
2022-11-29T11:17:15.906Z,83.40
2022-11-29T11:19:55.437Z,84.50
2022-11-29T11:22:23.642Z,84.05
2022-11-29T11:24:58.348Z,83.32
2022-11-29T11:27:31.659Z,84.55
2022-11-29T11:30:00.096Z,83.25
2022-11-29T11:32:26.982Z,82.95
2022-11-29T11:34:56.435Z,82.88
2022-11-29T11:37:26.545Z,84.80
2022-11-29T11:39:55.970Z,82.93
2022-11-29T11:42:38.572Z,85.45
2022-11-29T11:45:23.053Z,82.40
2022-11-29T11:47:52.830Z,83.05
2022-11-29T11:50:29.767Z,82.93
2022-11-29T11:52:58.790Z,84.18
2022-11-29T11:55:33.270Z,82.72
2022-11-29T11:58:09.805Z,83.05
2022-11-29T12:01:02.870Z,86.75
2022-11-29T12:03:32.994Z,83.28
2022-11-29T12:06:13.107Z,83.55
2022-11-29T12:08:40.095Z,81.40
2022-11-29T12:11:11.758Z,81.63
2022-11-29T12:13:45.123Z,81.93
2022-11-29T12:16:18.407Z,81.28
2022-11-29T12:18:50.624Z,82.30
2022-11-29T12:21:24.282Z,81.57
2022-11-29T12:23:57.061Z,81.78
2022-11-29T12:26:55.899Z,81.82
2022-11-29T12:29:15.265Z,82.43
2022-11-29T12:31:56.876Z,81.65
2022-11-29T12:34:37.747Z,83.07
2022-11-29T12:37:15.365Z,82.13
2022-11-29T12:39:57.371Z,81.13
2022-11-29T12:42:36.312Z,82.30
2022-11-29T12:45:19.454Z,80.57
2022-11-29T12:47:52.427Z,80.10
2022-11-29T12:50:33.367Z,81.35
2022-11-29T12:53:22.563Z,81.20
2022-11-29T12:56:02.459Z,81.53
2022-11-29T12:58:33.107Z,80.90
2022-11-29T13:01:10.839Z,80.97
2022-11-29T13:03:51.363Z,81.70
2022-11-29T13:06:28.543Z,82.37
2022-11-29T13:09:13.214Z,80.68
2022-11-29T13:11:43.240Z,80.85
2022-11-29T13:14:42.125Z,82.13
2022-11-29T13:17:05.075Z,82.95
2022-11-29T13:19:38.987Z,82.57
2022-11-29T13:22:14.095Z,83.18
2022-11-29T13:24:47.052Z,81.07
2022-11-29T13:27:18.667Z,82.30
2022-11-29T13:29:46.385Z,81.53
2022-11-29T13:32:30.040Z,81.03
2022-11-29T13:35:01.400Z,81.10
2022-11-29T13:37:33.209Z,83.18
2022-11-29T13:40:13.969Z,82.53
2022-11-29T13:42:47.661Z,81.05
2022-11-29T13:45:22.696Z,82.03
2022-11-29T13:47:50.973Z,81.60
2022-11-29T13:50:39.165Z,81.15
2022-11-29T13:53:13.760Z,81.90
2022-11-29T13:55:47.779Z,81.03
2022-11-29T13:58:33.955Z,80.88
2022-11-29T14:01:01.999Z,81.50
2022-11-29T14:03:32.860Z,80.93
2022-11-29T14:06:12.654Z,82.18
2022-11-29T14:09:17.214Z,81.75
2022-11-29T14:11:43.416Z,81.85
2022-11-29T14:14:20.998Z,81.20
2022-11-29T14:16:50.499Z,81.25
2022-11-29T14:19:23.920Z,80.93
2022-11-29T14:22:20.378Z,81.18
2022-11-29T14:25:43.352Z,81.88
2022-11-29T14:28:28.954Z,82.47
2022-11-29T14:31:01.744Z,81.50
2022-11-29T14:33:42.859Z,81.07
2022-11-29T14:36:29.707Z,82.03
2022-11-29T14:39:08.640Z,80.90
2022-11-29T14:41:50.093Z,81.22
2022-11-29T14:46:48.755Z,81.73
2022-11-29T14:49:22.650Z,81.75
2022-11-29T14:52:08.359Z,80.72
2022-11-29T14:54:37.120Z,82.45
2022-11-29T14:57:40.875Z,84.22
2022-11-29T15:00:14.498Z,81.32
2022-11-29T15:02:45.742Z,81.43
2022-11-29T15:07:46.989Z,80.38
2022-11-29T15:10:21.217Z,81.57
2022-11-29T15:12:49.519Z,81.72
2022-11-29T15:15:39.965Z,80.45
2022-11-29T15:18:28.078Z,82.32
2022-11-29T15:21:10.765Z,83.18
2022-11-29T15:23:42.553Z,80.68
2022-11-29T15:26:17.450Z,81.50
2022-11-29T15:28:44.697Z,82.35
2022-11-29T15:31:16.074Z,81.43
2022-11-29T15:33:44.745Z,82.55
2022-11-29T15:36:17.347Z,82.88
2022-11-29T15:38:47.013Z,80.55
2022-11-29T15:41:22.248Z,82.18
2022-11-29T15:43:53.088Z,83.45
2022-11-29T15:46:25.052Z,81.13
2022-11-29T15:48:51.835Z,82.00
2022-11-29T15:51:26.539Z,82.88
2022-11-29T15:54:11.657Z,81.22
2022-11-29T15:56:44.782Z,81.60
2022-11-29T15:59:20.045Z,81.72
2022-11-29T16:01:52.380Z,81.60
2022-11-29T16:04:21.534Z,81.95
2022-11-29T16:06:49.615Z,81.88
2022-11-29T16:09:19.040Z,81.05
2022-11-29T16:11:47.484Z,81.95
2022-11-29T16:14:20.579Z,81.05
2022-11-29T16:16:52.622Z,82.57
2022-11-29T16:19:29.095Z,83.40
2022-11-29T16:22:13.247Z,82.78
2022-11-29T16:24:47.141Z,81.78
2022-11-29T16:27:14.548Z,86.00
2022-11-29T16:29:45.129Z,81.47
2022-11-29T16:32:15.632Z,80.97
2022-11-29T16:34:43.873Z,81.97
2022-11-29T16:37:18.510Z,82.15
2022-11-29T16:39:48.092Z,82.00
2022-11-29T16:42:23.597Z,82.60
2022-11-29T16:45:24.832Z,82.70
2022-11-29T16:47:59.394Z,83.40
2022-11-29T16:50:27.415Z,84.72
2022-11-29T16:52:56.798Z,82.05
2022-11-29T16:55:24.383Z,81.57
2022-11-29T16:57:52.206Z,81.28
2022-11-29T17:00:30.570Z,83.13
2022-11-29T17:02:59.672Z,83.15
2022-11-29T17:05:27.108Z,81.82
2022-11-29T17:07:54.570Z,82.80
2022-11-29T17:10:24.293Z,83.53
2022-11-29T17:12:51.210Z,83.43
2022-11-29T17:15:18.044Z,82.43
2022-11-29T17:17:44.931Z,82.10
2022-11-29T17:20:13.735Z,82.28
2022-11-29T17:22:40.667Z,81.47
2022-11-29T17:25:08.337Z,84.80
2022-11-29T17:27:35.913Z,82.55
2022-11-29T17:30:03.514Z,83.82
2022-11-29T17:32:30.383Z,83.32
2022-11-29T17:34:57.169Z,82.45
2022-11-29T17:37:25.630Z,82.35
2022-11-29T17:39:52.523Z,84.13
2022-11-29T17:42:20.743Z,83.05
2022-11-29T17:44:47.612Z,82.68
2022-11-29T17:47:14.832Z,82.43
2022-11-29T17:49:42.004Z,82.18
2022-11-29T17:52:08.853Z,82.28
2022-11-29T17:54:37.052Z,85.25
2022-11-29T17:57:04.548Z,84.88
2022-11-29T17:59:31.367Z,83.97
2022-11-29T18:01:58.192Z,82.18
2022-11-29T18:04:25.116Z,84.20
2022-11-29T18:06:51.952Z,82.70
2022-11-29T18:09:19.617Z,82.70
2022-11-29T18:11:49.931Z,83.90
2022-11-29T18:14:19.494Z,82.05
2022-11-29T18:16:46.511Z,83.85
2022-11-29T18:19:15.371Z,81.00
2022-11-29T18:21:42.186Z,81.28
2022-11-29T18:24:10.028Z,82.18
2022-11-29T18:26:38.097Z,82.60
2022-11-29T18:29:07.262Z,81.72
2022-11-29T18:31:35.654Z,81.53
2022-11-29T18:34:06.993Z,81.00
2022-11-29T18:36:36.661Z,81.05
2022-11-29T18:39:05.779Z,82.25
2022-11-29T18:41:33.034Z,81.80
2022-11-29T18:44:02.241Z,81.47
2022-11-29T18:46:36.582Z,88.68
2022-11-29T18:49:05.900Z,82.78
2022-11-29T18:51:33.518Z,82.57
2022-11-29T18:54:01.098Z,82.25
2022-11-29T18:56:30.296Z,82.45
2022-11-29T18:58:58.947Z,81.68
2022-11-29T19:01:28.552Z,81.85
2022-11-29T19:03:58.750Z,82.97
2022-11-29T19:06:28.399Z,81.68
2022-11-29T19:08:56.968Z,83.45
2022-11-29T19:11:25.156Z,81.97
2022-11-29T19:13:55.056Z,80.85
2022-11-29T19:16:22.599Z,81.25
2022-11-29T19:18:51.812Z,82.55
2022-11-29T19:21:21.551Z,83.90
2022-11-29T19:23:52.206Z,81.68
2022-11-29T19:26:19.692Z,85.88
2022-11-29T19:28:46.784Z,81.82
2022-11-29T19:31:15.697Z,81.15
2022-11-29T19:33:44.852Z,81.82
2022-11-29T19:36:13.764Z,84.13
2022-11-29T19:38:43.396Z,82.22
2022-11-29T19:41:10.834Z,82.22
2022-11-29T19:43:37.781Z,82.22
2022-11-29T19:46:08.739Z,81.93
2022-11-29T19:48:36.142Z,81.05
2022-11-29T19:51:04.251Z,81.80
2022-11-29T19:53:31.544Z,81.60
2022-11-29T19:56:03.368Z,83.30
2022-11-29T19:58:30.262Z,81.72
2022-11-29T20:01:04.657Z,82.15
2022-11-29T20:03:31.486Z,82.05
2022-11-29T20:05:58.272Z,84.03
2022-11-29T20:08:25.239Z,82.05
2022-11-29T20:10:52.095Z,82.20
2022-11-29T20:13:20.620Z,81.60
2022-11-29T20:15:47.757Z,83.57
2022-11-29T20:18:14.675Z,82.35
2022-11-29T20:20:41.472Z,82.00
2022-11-29T20:23:08.257Z,82.50
2022-11-29T20:25:36.403Z,81.22
2022-11-29T20:28:04.208Z,80.97
2022-11-29T20:30:33.510Z,82.40
2022-11-29T20:33:00.564Z,82.63
2022-11-29T20:35:28.319Z,82.45
2022-11-29T20:38:15.760Z,81.93
2022-11-29T20:41:01.064Z,81.35
2022-11-29T20:43:38.645Z,82.47
2022-11-29T20:46:07.622Z,82.47
2022-11-29T20:48:34.764Z,81.70
2022-11-29T20:51:02.406Z,82.85
2022-11-29T20:53:33.458Z,82.15
2022-11-29T20:56:00.847Z,84.13
2022-11-29T20:58:27.831Z,83.43
2022-11-29T21:00:55.513Z,81.68
2022-11-29T21:03:24.580Z,82.13
2022-11-29T21:05:52.429Z,83.00
2022-11-29T21:08:23.372Z,82.90
2022-11-29T21:10:50.653Z,81.85
2022-11-29T21:13:20.241Z,84.22
2022-11-29T21:15:47.771Z,82.15
2022-11-29T21:18:21.755Z,82.22
2022-11-29T21:21:00.047Z,83.45
2022-11-29T21:23:37.313Z,83.00
2022-11-29T21:26:10.357Z,82.00
2022-11-29T21:28:41.708Z,82.40
2022-11-29T21:33:37.759Z,81.80
2022-11-29T21:36:06.905Z,82.78
2022-11-29T21:38:33.683Z,81.22
2022-11-29T21:41:00.499Z,83.32
2022-11-29T21:43:58.074Z,84.22
2022-11-29T21:46:14.378Z,82.15
2022-11-29T21:48:42.441Z,83.63
2022-11-29T21:51:12.099Z,83.20
2022-11-29T21:53:39.881Z,82.57
2022-11-29T21:56:08.764Z,81.68
2022-11-29T21:58:37.091Z,81.97
2022-11-29T22:01:09.070Z,81.90
2022-11-29T22:03:38.262Z,85.05
2022-11-29T22:06:07.365Z,81.90
2022-11-29T22:08:36.161Z,81.75
2022-11-29T22:11:05.382Z,81.72
2022-11-29T22:13:32.506Z,83.43
2022-11-29T22:16:07.915Z,81.68
2022-11-29T22:18:34.782Z,82.68
2022-11-29T22:21:05.878Z,83.18
2022-11-29T22:23:33.531Z,83.70
2022-11-29T22:26:07.166Z,83.30
2022-11-29T22:28:34.786Z,84.60
2022-11-29T22:31:03.652Z,81.57
2022-11-29T22:33:30.681Z,81.82
2022-11-29T22:36:02.245Z,82.43
2022-11-29T22:38:29.059Z,81.75
2022-11-29T22:41:00.079Z,82.00
2022-11-29T22:43:28.689Z,82.10
2022-11-29T22:45:55.522Z,81.88
2022-11-29T22:48:22.360Z,81.80
2022-11-29T22:50:49.156Z,81.93
2022-11-29T22:53:16.435Z,82.20
2022-11-29T22:55:43.248Z,81.95
2022-11-29T22:58:10.127Z,82.72
2022-11-29T23:00:43.962Z,81.05
2022-11-29T23:03:10.978Z,81.38
2022-11-29T23:05:37.834Z,83.55
2022-11-29T23:08:05.134Z,85.30
2022-11-29T23:10:32.078Z,81.60
2022-11-29T23:12:58.936Z,82.53
2022-11-29T23:15:25.860Z,81.05
2022-11-29T23:17:54.080Z,83.75
2022-11-29T23:20:20.919Z,81.53
2022-11-29T23:22:47.704Z,80.95
2022-11-29T23:25:14.615Z,81.65
2022-11-29T23:27:41.374Z,82.25
2022-11-29T23:30:09.127Z,81.38
2022-11-29T23:32:35.916Z,82.65
2022-11-29T23:35:04.487Z,81.65
2022-11-29T23:37:31.323Z,82.97
2022-11-29T23:39:58.309Z,82.57
2022-11-29T23:42:25.621Z,83.10
2022-11-29T23:44:52.516Z,80.70
2022-11-29T23:47:19.375Z,82.00
2022-11-29T23:49:46.161Z,83.25
2022-11-29T23:52:14.391Z,81.47
2022-11-29T23:54:41.195Z,81.90
2022-11-29T23:57:08.020Z,81.10
2022-11-29T23:59:34.811Z,82.78
